Time;durP1;ratioP1;P1;durP2;ratioP2;P2;SDS_P1;SDS_P2;PMS_P1;PMS_P2;Temp;Humidity;BMP_temperature;BMP_pressure;BME280_temperature;BME280_humidity;BME280_pressure;Samples;Min_cycle;Max_cycle;Signal;HPM_P1;HPM_P2
2022/09/23 00:00:03;;;;;;;;;;;;;;;;;;4928829;29;20184;-88
2022/09/23 00:02:28;;;;;;;;;;;;;;;;;;4929296;29;19915;-89
2022/09/23 00:04:53;;;;;;;;;;;;;;;;;;4926725;29;19994;-88
2022/09/23 00:07:20;;;;;;;;;;;;;;;;;;4928454;29;19926;-88
2022/09/23 00:09:45;;;;;;;;;;;;;;;;;;4927328;29;20563;-89
2022/09/23 00:12:10;;;;;;;;;;;;;;;;;;4927903;29;19922;-88
2022/09/23 00:14:36;;;;;;;;;;;;;;;;;;4926036;28;20006;-88
2022/09/23 00:17:01;;;;;;;;;;;;;;;;;;4924585;29;19919;-88
2022/09/23 00:19:26;;;;;;;;;;;;;;;;;;4919018;29;19989;-89
2022/09/23 00:21:51;;;;;;;;;;;;;;;;;;4923739;29;19919;-88
2022/09/23 00:24:18;;;;;;;;;;;;;;;;;;4928616;29;19915;-89
2022/09/23 00:26:43;;;;;;;;;;;;;;;;;;4923362;29;19911;-88
2022/09/23 00:29:08;;;;;;;;;;;;;;;;;;4918993;29;19922;-89
2022/09/23 00:31:34;;;;;;;;;;;;;;;;;;4922663;29;20330;-89
2022/09/23 00:33:59;;;;;;;;;;;;;;;;;;4918121;29;19916;-89
2022/09/23 00:36:24;;;;;;;;;;;;;;;;;;4922539;29;20341;-89
2022/09/23 00:38:49;;;;;;;;;;;;;;;;;;4920539;29;20429;-87
2022/09/23 00:41:14;;;;;;;;;;;;;;;;;;4924371;29;20150;-89
2022/09/23 00:43:40;;;;;;;;;;;;;;;;;;4923978;29;20417;-88
2022/09/23 00:46:05;;;;;;;;;;;;;;;;;;4928946;28;19918;-88
2022/09/23 00:48:30;;;;;;;;;;;;;;;;;;4917269;29;19969;-89
2022/09/23 00:50:55;;;;;;;;;;;;;;;;;;4924362;29;20081;-89
2022/09/23 00:53:21;;;;;;;;;;;;;;;;;;4919752;29;20006;-88
2022/09/23 00:55:47;;;;;;;;;;;;;;;;;;4920968;29;19923;-88
2022/09/23 00:58:13;;;;;;;;;;;;;;;;;;4919859;29;19927;-89
2022/09/23 01:00:39;;;;;;;;;;;;;;;;;;4923760;29;19922;-89
2022/09/23 01:03:05;;;;;;;;;;;;;;;;;;4915229;29;19915;-89
2022/09/23 01:05:30;;;;;;;;;;;;;;;;;;4910342;29;19967;-89
2022/09/23 01:07:56;;;;;;;;;;;;;;;;;;4917961;29;19915;-89
2022/09/23 01:10:22;;;;;;;;;;;;;;;;;;4918177;29;19959;-89
2022/09/23 01:12:47;;;;;;;;;;;;;;;;;;4920368;28;20321;-88
2022/09/23 01:15:12;;;;;;;;;;;;;;;;;;4924172;29;20345;-89
2022/09/23 01:17:38;;;;;;;;;;;;;;;;;;4922635;29;20083;-88
2022/09/23 01:20:03;;;;;;;;;;;;;;;;;;4920604;29;20334;-89
2022/09/23 01:22:28;;;;;;;;;;;;;;;;;;4924237;29;20408;-89
2022/09/23 01:24:53;;;;;;;;;;;;;;;;;;4915010;29;19919;-89
2022/09/23 01:27:19;;;;;;;;;;;;;;;;;;4927749;29;20317;-89
2022/09/23 01:29:44;;;;;;;;;;;;;;;;;;4927315;29;19919;-89
2022/09/23 01:32:09;;;;;;;;;;;;;;;;;;4937387;28;19915;-89
2022/09/23 01:34:34;;;;;;;;;;;;;;;;;;4928093;29;20122;-89
2022/09/23 01:36:59;;;;;;;;;;;;;;;;;;4940761;29;19926;-88
2022/09/23 01:39:24;;;;;;;;;;;;;;;;;;4937849;29;19914;-89
2022/09/23 01:41:50;;;;;;;;;;;;;;;;;;4926654;29;20041;-89
2022/09/23 01:44:15;;;;;;;;;;;;;;;;;;4925899;29;19929;-89
2022/09/23 01:46:41;;;;;;;;;;;;;;;;;;4922650;29;20018;-89
2022/09/23 01:49:06;;;;;;;;;;;;;;;;;;4921715;29;19914;-89
2022/09/23 01:51:31;;;;;;;;;;;;;;;;;;4923753;29;20695;-88
2022/09/23 01:53:56;;;;;;;;;;;;;;;;;;4920549;29;19915;-89
2022/09/23 01:56:21;;;;;;;;;;;;;;;;;;4924722;28;19922;-89
2022/09/23 01:58:47;;;;;;;;;;;;;;;;;;4930536;28;19971;-89
2022/09/23 02:01:14;;;;;;;;;;;;;;;;;;4922984;29;20131;-89
2022/09/23 02:03:39;;;;;;;;;;;;;;;;;;4923222;29;20003;-89
2022/09/23 02:06:04;;;;;;;;;;;;;;;;;;4927703;29;19915;-89
2022/09/23 02:08:29;;;;;;;;;;;;;;;;;;4917763;29;19915;-89
2022/09/23 02:10:55;;;;;;;;;;;;;;;;;;4924561;29;19922;-89
2022/09/23 02:13:20;;;;;;;;;;;;;;;;;;4924960;29;19919;-89
2022/09/23 02:15:45;;;;;;;;;;;;;;;;;;4930038;29;19919;-89
2022/09/23 02:18:11;;;;;;;;;;;;;;;;;;4922936;29;19923;-89
2022/09/23 02:20:36;;;;;;;;;;;;;;;;;;4925019;29;19966;-89
2022/09/23 02:23:01;;;;;;;;;;;;;;;;;;4916517;29;19922;-89
2022/09/23 02:25:27;;;;;;;;;;;;;;;;;;4923316;29;19918;-89
2022/09/23 02:27:52;;;;;;;;;;;;;;;;;;4920885;29;20337;-89
2022/09/23 02:30:17;;;;;;;;;;;;;;;;;;4920038;29;19915;-89
2022/09/23 02:32:43;;;;;;;;;;;;;;;;;;4918274;29;19935;-89
2022/09/23 02:35:08;;;;;;;;;;;;;;;;;;4921811;29;20654;-89
2022/09/23 02:37:34;;;;;;;;;;;;;;;;;;4917433;28;19927;-89
2022/09/23 02:39:59;;;;;;;;;;;;;;;;;;4919043;29;19915;-88
2022/09/23 02:42:24;;;;;;;;;;;;;;;;;;4920073;29;19919;-89
2022/09/23 02:44:49;;;;;;;;;;;;;;;;;;4923168;29;19919;-89
2022/09/23 02:47:14;;;;;;;;;;;;;;;;;;4919799;29;19923;-88
2022/09/23 02:49:40;;;;;;;;;;;;;;;;;;4917653;29;20357;-89
2022/09/23 02:52:06;;;;;;;;;;;;;;;;;;4919978;29;20001;-89
2022/09/23 02:54:32;;;;;;;;;;;;;;;;;;4915836;29;19919;-89
2022/09/23 02:56:57;;;;;;;;;;;;;;;;;;4919988;29;19935;-89
2022/09/23 02:59:22;;;;;;;;;;;;;;;;;;4919599;29;19950;-89
2022/09/23 03:01:48;;;;;;;;;;;;;;;;;;4919010;29;20277;-89
2022/09/23 03:04:13;;;;;;;;;;;;;;;;;;4917118;29;19925;-89
2022/09/23 03:06:38;;;;;;;;;;;;;;;;;;4919711;29;19926;-89
2022/09/23 03:09:04;;;;;;;;;;;;;;;;;;4920649;29;19915;-89
2022/09/23 03:11:31;;;;;;;;;;;;;;;;;;4924570;29;19930;-89
2022/09/23 03:13:57;;;;;;;;;;;;;;;;;;4920102;29;19938;-88
2022/09/23 03:16:23;;;;;;;;;;;;;;;;;;4919824;29;19923;-89
2022/09/23 03:18:49;;;;;;;;;;;;;;;;;;4917042;29;20010;-88
2022/09/23 03:21:14;;;;;;;;;;;;;;;;;;4923138;29;19919;-89
2022/09/23 03:23:39;;;;;;;;;;;;;;;;;;4919181;29;19925;-90
2022/09/23 03:26:05;;;;;;;;;;;;;;;;;;4921732;29;20005;-88
2022/09/23 03:28:30;;;;;;;;;;;;;;;;;;4913804;29;19915;-89
2022/09/23 03:30:55;;;;;;;;;;;;;;;;;;4922098;29;19990;-89
2022/09/23 03:33:20;;;;;;;;;;;;;;;;;;4918276;29;20155;-89
2022/09/23 03:38:30;;;;;;;;;;;;;;;;;;4916349;29;19967;-88
2022/09/23 03:40:56;;;;;;;;;;;;;;;;;;4921008;29;19915;-89
2022/09/23 03:43:21;;;;;;;;;;;;;;;;;;4919436;29;19947;-89
2022/09/23 03:45:46;;;;;;;;;;;;;;;;;;4923464;29;20009;-89
2022/09/23 03:48:13;;;;;;;;;;;;;;;;;;4920565;29;19923;-89
2022/09/23 03:50:39;;;;;;;;;;;;;;;;;;4913940;29;20293;-89
2022/09/23 03:53:04;;;;;;;;;;;;;;;;;;4916493;29;19914;-89
2022/09/23 03:55:32;;;;;;;;;;;;;;;;;;4918166;29;19915;-89
2022/09/23 03:57:59;;;;;;;;;;;;;;;;;;4919630;29;20019;-89
2022/09/23 04:00:24;;;;;;;;;;;;;;;;;;4916372;29;19915;-89
2022/09/23 04:02:49;;;;;;;;;;;;;;;;;;4917247;29;19919;-88
2022/09/23 04:05:16;;;;;;;;;;;;;;;;;;4916682;29;20278;-87
2022/09/23 04:07:42;;;;;;;;;;;;;;;;;;4917742;29;19923;-89
2022/09/23 04:10:08;;;;;;;;;;;;;;;;;;4920204;29;20535;-89
2022/09/23 04:12:33;;;;;;;;;;;;;;;;;;4916122;29;19919;-89
2022/09/23 04:14:59;;;;;;;;;;;;;;;;;;4918433;29;19922;-88
2022/09/23 04:17:24;;;;;;;;;;;;;;;;;;4919972;29;19969;-89
2022/09/23 04:19:49;;;;;;;;;;;;;;;;;;4918513;29;19915;-89
2022/09/23 04:22:14;;;;;;;;;;;;;;;;;;4920992;29;19962;-89
2022/09/23 04:24:39;;;;;;;;;;;;;;;;;;4922388;29;20262;-88
2022/09/23 04:27:05;;;;;;;;;;;;;;;;;;4919861;28;19926;-89
2022/09/23 04:29:30;;;;;;;;;;;;;;;;;;4922445;29;19923;-89
2022/09/23 04:31:56;;;;;;;;;;;;;;;;;;4917205;29;19952;-88
2022/09/23 04:34:21;;;;;;;;;;;;;;;;;;4920434;29;19963;-88
2022/09/23 04:36:46;;;;;;;;;;;;;;;;;;4918967;29;19922;-89
2022/09/23 04:39:12;;;;;;;;;;;;;;;;;;4922165;29;19915;-89
2022/09/23 04:41:37;;;;;;;;;;;;;;;;;;4922363;29;20373;-89
2022/09/23 04:44:02;;;;;;;;;;;;;;;;;;4926073;29;20053;-88
2022/09/23 04:46:27;;;;;;;;;;;;;;;;;;4919759;29;19942;-88
2022/09/23 04:48:52;;;;;;;;;;;;;;;;;;4914679;29;19911;-89
2022/09/23 04:51:17;;;;;;;;;;;;;;;;;;4914739;29;20278;-89
2022/09/23 04:53:43;;;;;;;;;;;;;;;;;;4914773;29;19918;-89
2022/09/23 04:56:11;;;;;;;;;;;;;;;;;;4914973;29;20340;-89
2022/09/23 04:58:36;;;;;;;;;;;;;;;;;;4915054;29;19911;-89
2022/09/23 05:01:01;;;;;;;;;;;;;;;;;;4915640;29;19926;-89
2022/09/23 05:03:29;;;;;;;;;;;;;;;;;;4918665;29;19940;-89
2022/09/23 05:05:54;;;;;;;;;;;;;;;;;;4918125;29;20377;-89
2022/09/23 05:08:20;;;;;;;;;;;;;;;;;;4918504;29;19911;-89
2022/09/23 05:10:46;;;;;;;;;;;;;;;;;;4917051;29;20292;-89
2022/09/23 05:13:11;;;;;;;;;;;;;;;;;;4918089;29;19999;-90
2022/09/23 05:15:36;;;;;;;;;;;;;;;;;;4918195;29;20085;-88
2022/09/23 05:18:01;;;;;;;;;;;;;;;;;;4918191;29;19970;-89
2022/09/23 05:20:26;;;;;;;;;;;;;;;;;;4917942;29;19912;-89
2022/09/23 05:22:54;;;;;;;;;;;;;;;;;;4918273;29;19961;-89
2022/09/23 05:25:19;;;;;;;;;;;;;;;;;;4917941;29;19947;-89
2022/09/23 05:27:44;;;;;;;;;;;;;;;;;;4918258;29;19911;-89
2022/09/23 05:30:10;;;;;;;;;;;;;;;;;;4918176;29;20289;-88
2022/09/23 05:32:35;;;;;;;;;;;;;;;;;;4916729;29;19912;-89
2022/09/23 05:35:01;;;;;;;;;;;;;;;;;;4917614;29;19918;-88
2022/09/23 05:37:26;;;;;;;;;;;;;;;;;;4917847;29;19915;-89
2022/09/23 05:39:51;;;;;;;;;;;;;;;;;;4918147;29;20318;-88
2022/09/23 05:42:17;;;;;;;;;;;;;;;;;;4917616;29;20006;-88
2022/09/23 05:44:42;;;;;;;;;;;;;;;;;;4917821;29;19915;-88
2022/09/23 05:47:07;;;;;;;;;;;;;;;;;;4917659;29;20433;-89
2022/09/23 05:49:32;;;;;;;;;;;;;;;;;;4917410;29;20137;-89
2022/09/23 05:51:58;;;;;;;;;;;;;;;;;;4917703;29;20002;-89
2022/09/23 05:54:23;;;;;;;;;;;;;;;;;;4917331;29;19995;-88
2022/09/23 05:56:48;;;;;;;;;;;;;;;;;;4917192;29;20299;-89
2022/09/23 05:59:13;;;;;;;;;;;;;;;;;;4917203;29;19976;-88
2022/09/23 06:01:40;;;;;;;;;;;;;;;;;;4916762;29;21921;-88
2022/09/23 06:04:06;;;;;;;;;;;;;;;;;;4917507;29;19963;-88
2022/09/23 06:06:32;;;;;;;;;;;;;;;;;;4917521;29;19911;-88
2022/09/23 06:09:00;;;;;;;;;;;;;;;;;;4917254;29;19994;-88
2022/09/23 06:11:25;;;;;;;;;;;;;;;;;;4917416;29;19907;-89
2022/09/23 06:13:51;;;;;;;;;;;;;;;;;;4916130;29;20002;-88
2022/09/23 06:16:16;;;;;;;;;;;;;;;;;;4917028;29;19912;-89
2022/09/23 06:18:41;;;;;;;;;;;;;;;;;;4915682;29;19915;-89
2022/09/23 06:21:06;;;;;;;;;;;;;;;;;;4916962;29;19911;-88
2022/09/23 06:23:32;;;;;;;;;;;;;;;;;;4916796;29;20385;-90
2022/09/23 06:25:57;;;;;;;;;;;;;;;;;;4916742;29;19928;-88
2022/09/23 06:28:23;;;;;;;;;;;;;;;;;;4916991;29;19918;-88
2022/09/23 06:30:49;;;;;;;;;;;;;;;;;;4916568;29;19911;-88
2022/09/23 06:33:14;;;;;;;;;;;;;;;;;;4916674;29;19911;-88
2022/09/23 06:35:39;;;;;;;;;;;;;;;;;;4916691;29;19990;-88
2022/09/23 06:38:05;;;;;;;;;;;;;;;;;;4916822;29;19998;-88
2022/09/23 06:40:30;;;;;;;;;;;;;;;;;;4917005;29;19912;-89
2022/09/23 06:42:55;;;;;;;;;;;;;;;;;;4916770;29;19918;-89
2022/09/23 06:45:20;;;;;;;;;;;;;;;;;;4916768;29;20061;-88
2022/09/23 06:47:45;;;;;;;;;;;;;;;;;;4916421;29;20363;-88
2022/09/23 06:50:14;;;;;;;;;;;;;;;;;;4916517;29;19912;-87
2022/09/23 06:52:39;;;;;;;;;;;;;;;;;;4915130;29;19915;-88
2022/09/23 06:55:04;;;;;;;;;;;;;;;;;;4916436;29;19911;-88
2022/09/23 06:57:30;;;;;;;;;;;;;;;;;;4916360;29;19919;-88
2022/09/23 06:59:57;;;;;;;;;;;;;;;;;;4916519;29;19912;-88
2022/09/23 07:02:22;;;;;;;;;;;;;;;;;;4916248;29;20481;-89
2022/09/23 07:04:47;;;;;;;;;;;;;;;;;;4916349;29;19911;-88
2022/09/23 07:07:15;;;;;;;;;;;;;;;;;;4915828;29;19911;-89
2022/09/23 07:09:40;;;;;;;;;;;;;;;;;;4916145;29;19923;-88
2022/09/23 07:12:05;;;;;;;;;;;;;;;;;;4916172;29;19911;-89
2022/09/23 07:14:31;;;;;;;;;;;;;;;;;;4916107;29;19994;-88
2022/09/23 07:16:58;;;;;;;;;;;;;;;;;;4914983;29;20282;-89
2022/09/23 07:19:25;;;;;;;;;;;;;;;;;;4914783;29;20289;-88
2022/09/23 07:21:50;;;;;;;;;;;;;;;;;;4915906;29;19918;-88
2022/09/23 07:24:15;;;;;;;;;;;;;;;;;;4915789;29;19911;-88
2022/09/23 07:26:40;;;;;;;;;;;;;;;;;;4915718;29;20071;-88
2022/09/23 07:29:05;;;;;;;;;;;;;;;;;;4915812;29;19911;-88
2022/09/23 07:31:31;;;;;;;;;;;;;;;;;;4915781;29;19943;-88
2022/09/23 07:33:56;;;;;;;;;;;;;;;;;;4916019;29;19943;-89
2022/09/23 07:36:21;;;;;;;;;;;;;;;;;;4915410;29;20483;-88
2022/09/23 07:38:46;;;;;;;;;;;;;;;;;;4915472;29;19911;-88
2022/09/23 07:41:12;;;;;;;;;;;;;;;;;;4915798;29;19915;-88
2022/09/23 07:43:39;;;;;;;;;;;;;;;;;;4915623;29;20380;-88
2022/09/23 07:46:06;;;;;;;;;;;;;;;;;;4914939;29;19931;-88
2022/09/23 07:48:32;;;;;;;;;;;;;;;;;;4914541;29;20006;-89
2022/09/23 07:50:59;;;;;;;;;;;;;;;;;;4915759;29;20024;-89
2022/09/23 07:53:24;;;;;;;;;;;;;;;;;;4915277;29;19911;-87
2022/09/23 07:55:49;;;;;;;;;;;;;;;;;;4915554;29;19912;-88
2022/09/23 07:58:14;;;;;;;;;;;;;;;;;;4915355;29;19958;-88
2022/09/23 08:00:39;;;;;;;;;;;;;;;;;;4914241;29;19917;-88
2022/09/23 08:03:04;;;;;;;;;;;;;;;;;;4915345;29;20305;-88
2022/09/23 08:05:30;;;;;;;;;;;;;;;;;;4915194;29;19911;-89
2022/09/23 08:07:56;;;;;;;;;;;;;;;;;;4914976;29;20307;-88
2022/09/23 08:10:21;;;;;;;;;;;;;;;;;;4915367;29;19911;-88
2022/09/23 08:12:46;;;;;;;;;;;;;;;;;;4915108;29;20288;-88
2022/09/23 08:15:15;;;;;;;;;;;;;;;;;;4914882;29;20370;-88
2022/09/23 08:17:41;;;;;;;;;;;;;;;;;;4914952;29;19955;-88
2022/09/23 08:20:06;;;;;;;;;;;;;;;;;;4914765;29;20314;-88
2022/09/23 08:22:31;;;;;;;;;;;;;;;;;;4914699;29;20054;-88
2022/09/23 08:24:57;;;;;;;;;;;;;;;;;;4914961;29;19911;-88
2022/09/23 08:27:22;;;;;;;;;;;;;;;;;;4915101;29;20376;-88
2022/09/23 08:29:47;;;;;;;;;;;;;;;;;;4914961;29;20445;-88
2022/09/23 08:32:12;;;;;;;;;;;;;;;;;;4915106;29;19911;-88
2022/09/23 08:34:38;;;;;;;;;;;;;;;;;;4914937;29;20340;-88
2022/09/23 08:37:03;;;;;;;;;;;;;;;;;;4914327;29;20394;-88
2022/09/23 08:39:29;;;;;;;;;;;;;;;;;;4914928;29;20428;-88
2022/09/23 08:41:55;;;;;;;;;;;;;;;;;;4914706;29;19911;-88
2022/09/23 08:44:20;;;;;;;;;;;;;;;;;;4914915;29;20002;-88
2022/09/23 08:46:45;;;;;;;;;;;;;;;;;;4914422;29;19920;-89
2022/09/23 08:49:11;;;;;;;;;;;;;;;;;;4914796;29;19931;-88
2022/09/23 08:51:36;;;;;;;;;;;;;;;;;;4914657;29;19911;-87
2022/09/23 08:54:02;;;;;;;;;;;;;;;;;;4914692;29;20001;-88
2022/09/23 08:56:27;;;;;;;;;;;;;;;;;;4918073;29;19918;-88
2022/09/23 08:58:52;;;;;;;;;;;;;;;;;;4952932;28;20372;-88
2022/09/23 09:01:17;;;;;;;;;;;;;;;;;;4952506;29;19970;-88
2022/09/23 09:03:42;;;;;;;;;;;;;;;;;;4952840;28;19911;-87
2022/09/23 09:06:07;;;;;;;;;;;;;;;;;;4952753;28;19958;-89
2022/09/23 09:08:33;;;;;;;;;;;;;;;;;;4952670;28;20398;-88
2022/09/23 09:10:58;;;;;;;;;;;;;;;;;;4952648;28;19993;-88
2022/09/23 09:13:23;;;;;;;;;;;;;;;;;;4934824;29;20293;-88
2022/09/23 09:15:48;;;;;;;;;;;;;;;;;;4951679;28;19946;-89
2022/09/23 09:18:14;;;;;;;;;;;;;;;;;;4951228;28;19918;-88
2022/09/23 09:20:39;;;;;;;;;;;;;;;;;;4952667;29;19911;-88
2022/09/23 09:23:04;;;;;;;;;;;;;;;;;;4952364;28;19911;-88
2022/09/23 09:25:29;;;;;;;;;;;;;;;;;;4952882;28;20111;-88
2022/09/23 09:27:55;;;;;;;;;;;;;;;;;;4952397;28;19942;-88
2022/09/23 09:30:20;;;;;;;;;;;;;;;;;;4952365;29;20032;-89
2022/09/23 09:32:46;;;;;;;;;;;;;;;;;;4951772;29;19910;-88
2022/09/23 09:35:11;;;;;;;;;;;;;;;;;;4952614;28;19910;-87
2022/09/23 09:37:36;;;;;;;;;;;;;;;;;;4952267;28;20284;-88
2022/09/23 09:40:02;;;;;;;;;;;;;;;;;;4952061;28;20454;-87
2022/09/23 09:42:27;;;;;;;;;;;;;;;;;;4952428;29;19917;-88
2022/09/23 09:44:53;;;;;;;;;;;;;;;;;;4952358;29;20001;-88
2022/09/23 09:47:18;;;;;;;;;;;;;;;;;;4953728;28;20261;-88
2022/09/23 09:49:43;;;;;;;;;;;;;;;;;;4956206;28;19911;-87
2022/09/23 09:52:10;;;;;;;;;;;;;;;;;;4955750;29;20501;-88
2022/09/23 09:54:35;;;;;;;;;;;;;;;;;;4947353;29;19911;-88
2022/09/23 09:57:00;;;;;;;;;;;;;;;;;;4935820;29;20532;-88
2022/09/23 09:59:25;;;;;;;;;;;;;;;;;;4946733;29;19914;-88
2022/09/23 10:01:51;;;;;;;;;;;;;;;;;;4956494;29;20375;-88
2022/09/23 10:04:17;;;;;;;;;;;;;;;;;;4957077;28;20001;-88
2022/09/23 10:06:42;;;;;;;;;;;;;;;;;;4947885;28;20279;-88
2022/09/23 10:09:07;;;;;;;;;;;;;;;;;;4935990;29;20334;-88
2022/09/23 10:11:32;;;;;;;;;;;;;;;;;;4954625;29;19918;-87
2022/09/23 10:13:59;;;;;;;;;;;;;;;;;;4954430;29;20388;-88
2022/09/23 10:16:24;;;;;;;;;;;;;;;;;;4950287;28;19911;-89
2022/09/23 10:18:49;;;;;;;;;;;;;;;;;;4939947;29;20361;-89
2022/09/23 10:21:14;;;;;;;;;;;;;;;;;;4938459;29;19915;-89
2022/09/23 10:23:40;;;;;;;;;;;;;;;;;;4937766;29;19974;-89
2022/09/23 10:26:07;;;;;;;;;;;;;;;;;;4934601;29;19911;-88
2022/09/23 10:28:32;;;;;;;;;;;;;;;;;;4934375;29;20381;-88
2022/09/23 10:30:57;;;;;;;;;;;;;;;;;;4952926;29;19950;-88
2022/09/23 10:33:22;;;;;;;;;;;;;;;;;;4943653;29;19970;-88
2022/09/23 10:35:47;;;;;;;;;;;;;;;;;;4938027;28;19915;-88
2022/09/23 10:38:12;;;;;;;;;;;;;;;;;;4953722;28;19925;-88
2022/09/23 10:48:49;;;;;;;;;;;;;;;;;;4921941;29;20400;-88
2022/09/23 10:51:15;;;;;;;;;;;;;;;;;;4920177;29;19915;-88
2022/09/23 10:53:40;;;;;;;;;;;;;;;;;;4918279;29;19919;-87
2022/09/23 10:56:06;;;;;;;;;;;;;;;;;;4918899;29;19926;-88
2022/09/23 10:58:31;;;;;;;;;;;;;;;;;;4924040;29;20295;-88
2022/09/23 11:00:56;;;;;;;;;;;;;;;;;;4919300;29;19918;-88
2022/09/23 11:03:23;;;;;;;;;;;;;;;;;;4923209;29;19925;-88
2022/09/23 11:05:48;;;;;;;;;;;;;;;;;;4918045;29;19922;-89
2022/09/23 11:08:17;;;;;;;;;;;;;;;;;;4919039;29;19919;-88
2022/09/23 11:10:43;;;;;;;;;;;;;;;;;;4922701;29;20040;-88
2022/09/23 11:13:08;;;;;;;;;;;;;;;;;;4923920;29;20471;-88
2022/09/23 11:15:33;;;;;;;;;;;;;;;;;;4920989;29;20283;-88
2022/09/23 11:17:58;;;;;;;;;;;;;;;;;;4924327;28;20288;-88
2022/09/23 11:20:24;;;;;;;;;;;;;;;;;;4920575;29;19918;-88
2022/09/23 11:22:52;;;;;;;;;;;;;;;;;;4918104;29;19916;-88
2022/09/23 11:25:17;;;;;;;;;;;;;;;;;;4919629;29;19919;-89
2022/09/23 11:27:42;;;;;;;;;;;;;;;;;;4922563;29;19951;-88
2022/09/23 11:30:08;;;;;;;;;;;;;;;;;;4919677;29;20305;-88
2022/09/23 11:32:33;;;;;;;;;;;;;;;;;;4925888;29;20296;-88
2022/09/23 11:34:58;;;;;;;;;;;;;;;;;;4926101;29;19919;-88
2022/09/23 11:37:24;;;;;;;;;;;;;;;;;;4923783;29;20329;-88
2022/09/23 11:39:49;;;;;;;;;;;;;;;;;;4920200;29;19965;-88
2022/09/23 11:42:14;;;;;;;;;;;;;;;;;;4925756;29;20003;-88
2022/09/23 11:44:40;;;;;;;;;;;;;;;;;;4907433;29;19911;-88
2022/09/23 11:47:06;;;;;;;;;;;;;;;;;;4916359;29;19923;-88
2022/09/23 11:49:32;;;;;;;;;;;;;;;;;;4919524;29;19919;-88
2022/09/23 11:51:57;;;;;;;;;;;;;;;;;;4922209;29;19919;-89
2022/09/23 11:54:23;;;;;;;;;;;;;;;;;;4921054;29;19959;-89
2022/09/23 11:56:48;;;;;;;;;;;;;;;;;;4916451;29;19930;-89
2022/09/23 11:59:14;;;;;;;;;;;;;;;;;;4922188;29;19926;-88
2022/09/23 12:01:40;;;;;;;;;;;;;;;;;;4917340;29;20686;-88
2022/09/23 12:04:05;;;;;;;;;;;;;;;;;;4915536;29;19915;-87
2022/09/23 12:06:31;;;;;;;;;;;;;;;;;;4918831;29;20049;-87
2022/09/23 12:08:56;;;;;;;;;;;;;;;;;;4919883;29;19919;-87
2022/09/23 12:11:21;;;;;;;;;;;;;;;;;;4916174;29;19922;-87
2022/09/23 12:13:46;;;;;;;;;;;;;;;;;;4919994;29;19919;-88
2022/09/23 12:16:12;;;;;;;;;;;;;;;;;;4921316;28;20082;-88
2022/09/23 12:18:37;;;;;;;;;;;;;;;;;;4918570;29;19930;-87
2022/09/23 12:21:02;;;;;;;;;;;;;;;;;;4920866;29;19922;-87
2022/09/23 12:23:27;;;;;;;;;;;;;;;;;;4919910;29;20518;-88
2022/09/23 12:25:54;;;;;;;;;;;;;;;;;;4922721;28;19934;-88
2022/09/23 12:28:20;;;;;;;;;;;;;;;;;;4921159;29;19973;-88
2022/09/23 12:30:46;;;;;;;;;;;;;;;;;;4927440;29;19915;-86
2022/09/23 12:33:13;;;;;;;;;;;;;;;;;;4928191;29;20049;-86
2022/09/23 12:35:38;;;;;;;;;;;;;;;;;;4920829;29;20289;-87
2022/09/23 12:38:04;;;;;;;;;;;;;;;;;;4914055;29;19923;-86
2022/09/23 12:40:29;;;;;;;;;;;;;;;;;;4920198;29;20316;-86
2022/09/23 12:42:55;;;;;;;;;;;;;;;;;;4919795;29;19923;-87
2022/09/23 12:45:20;;;;;;;;;;;;;;;;;;4924232;28;19922;-87
2022/09/23 12:47:45;;;;;;;;;;;;;;;;;;4925324;29;19930;-86
2022/09/23 12:50:10;;;;;;;;;;;;;;;;;;4921461;29;19930;-84
2022/09/23 12:52:35;;;;;;;;;;;;;;;;;;4927111;29;20381;-84
2022/09/23 12:55:00;;;;;;;;;;;;;;;;;;4923134;28;19965;-84
2022/09/23 12:57:26;;;;;;;;;;;;;;;;;;4924188;28;20362;-85
2022/09/23 12:59:52;;;;;;;;;;;;;;;;;;4929403;29;19993;-85
2022/09/23 13:02:17;;;;;;;;;;;;;;;;;;4920588;29;20005;-84
2022/09/23 13:07:26;;;;;;;;;;;;;;;;;;4928769;29;20371;-85
2022/09/23 13:09:51;;;;;;;;;;;;;;;;;;4936709;28;19958;-88
2022/09/23 13:12:16;;;;;;;;;;;;;;;;;;4921485;29;19923;-86
2022/09/23 13:14:43;;;;;;;;;;;;;;;;;;4911246;29;20022;-86
2022/09/23 13:17:08;;;;;;;;;;;;;;;;;;4923471;29;20009;-87
2022/09/23 13:19:33;;;;;;;;;;;;;;;;;;4933867;29;20015;-88
2022/09/23 13:21:58;;;;;;;;;;;;;;;;;;4933913;29;20369;-86
2022/09/23 13:24:30;;;;;;;;;;;;;;;;;;4931668;29;20055;-86
2022/09/23 13:26:56;;;;;;;;;;;;;;;;;;4928933;29;19951;-87
2022/09/23 13:29:21;;;;;;;;;;;;;;;;;;4923881;28;20395;-86
2022/09/23 13:31:46;;;;;;;;;;;;;;;;;;4930081;29;20010;-86
2022/09/23 13:34:12;;;;;;;;;;;;;;;;;;4929529;29;19919;-86
2022/09/23 13:36:37;;;;;;;;;;;;;;;;;;4936001;28;19990;-84
2022/09/23 13:39:02;;;;;;;;;;;;;;;;;;4935429;28;19923;-87
2022/09/23 13:41:27;;;;;;;;;;;;;;;;;;4932083;29;19919;-85
2022/09/23 13:43:52;;;;;;;;;;;;;;;;;;4933438;29;19934;-85
2022/09/23 13:46:17;;;;;;;;;;;;;;;;;;4934066;29;20373;-85
2022/09/23 13:48:43;;;;;;;;;;;;;;;;;;4931476;29;19922;-87
2022/09/23 13:51:08;;;;;;;;;;;;;;;;;;4932211;29;20632;-86
2022/09/23 13:53:34;;;;;;;;;;;;;;;;;;4924825;29;20000;-84
2022/09/23 13:55:59;;;;;;;;;;;;;;;;;;4929500;29;19922;-87
2022/09/23 13:58:24;;;;;;;;;;;;;;;;;;4932868;29;20505;-84
2022/09/23 14:00:49;;;;;;;;;;;;;;;;;;4930204;29;19915;-87
2022/09/23 14:03:14;;;;;;;;;;;;;;;;;;4928972;28;19926;-86
2022/09/23 14:05:39;;;;;;;;;;;;;;;;;;4933075;29;19915;-86
2022/09/23 14:08:05;;;;;;;;;;;;;;;;;;4932103;29;19915;-86
2022/09/23 14:10:30;;;;;;;;;;;;;;;;;;4930293;29;19919;-87
2022/09/23 14:12:55;;;;;;;;;;;;;;;;;;4934170;29;19922;-85
2022/09/23 14:15:20;;;;;;;;;;;;;;;;;;4928376;29;19925;-88
2022/09/23 14:17:46;;;;;;;;;;;;;;;;;;4931326;29;20385;-86
2022/09/23 14:20:11;;;;;;;;;;;;;;;;;;4939319;29;19925;-85
2022/09/23 14:22:36;;;;;;;;;;;;;;;;;;4926532;29;19915;-84
2022/09/23 14:25:02;;;;;;;;;;;;;;;;;;4931853;29;19914;-85
2022/09/23 14:27:27;;;;;;;;;;;;;;;;;;4930787;29;19918;-85
2022/09/23 14:29:52;;;;;;;;;;;;;;;;;;4925866;29;20305;-87
2022/09/23 14:32:19;;;;;;;;;;;;;;;;;;4929210;29;20292;-85
2022/09/23 14:34:45;;;;;;;;;;;;;;;;;;4932158;29;19929;-86
2022/09/23 14:39:54;;;;;;;;;;;;;;;;;;4935648;29;19976;-85
2022/09/23 14:42:19;;;;;;;;;;;;;;;;;;4931208;29;20389;-87
2022/09/23 14:44:44;;;;;;;;;;;;;;;;;;4939891;29;19915;-87
2022/09/23 14:47:09;;;;;;;;;;;;;;;;;;4943195;28;20377;-86
2022/09/23 14:49:34;;;;;;;;;;;;;;;;;;4924125;29;19922;-88
2022/09/23 14:52:00;;;;;;;;;;;;;;;;;;4934514;29;20375;-88
2022/09/23 14:54:25;;;;;;;;;;;;;;;;;;4956630;28;20005;-88
2022/09/23 14:56:52;;;;;;;;;;;;;;;;;;4940102;29;20301;-87
2022/09/23 14:59:18;;;;;;;;;;;;;;;;;;4934034;29;19915;-87
2022/09/23 15:01:43;;;;;;;;;;;;;;;;;;4950950;29;19918;-87
2022/09/23 15:04:08;;;;;;;;;;;;;;;;;;4936930;29;19915;-85
2022/09/23 15:06:33;;;;;;;;;;;;;;;;;;4938207;29;19921;-86
2022/09/23 15:08:58;;;;;;;;;;;;;;;;;;4944596;29;19914;-86
2022/09/23 15:11:24;;;;;;;;;;;;;;;;;;4941416;29;19915;-87
2022/09/23 15:13:49;;;;;;;;;;;;;;;;;;4939671;28;20001;-84
2022/09/23 15:16:14;;;;;;;;;;;;;;;;;;4942204;28;19965;-85
2022/09/23 15:18:40;;;;;;;;;;;;;;;;;;4931335;29;19930;-87
2022/09/23 15:21:05;;;;;;;;;;;;;;;;;;4940109;29;19966;-88
2022/09/23 15:23:30;;;;;;;;;;;;;;;;;;4926438;29;19919;-87
2022/09/23 15:25:55;;;;;;;;;;;;;;;;;;4938689;28;20408;-87
2022/09/23 15:28:22;;;;;;;;;;;;;;;;;;4933755;29;19962;-88
2022/09/23 15:30:48;;;;;;;;;;;;;;;;;;4935574;29;19919;-86
2022/09/23 15:33:16;;;;;;;;;;;;;;;;;;4934989;28;19919;-87
2022/09/23 15:35:42;;;;;;;;;;;;;;;;;;4934805;29;19914;-88
2022/09/23 15:38:17;;;;;;;;;;;;;;;;;;;;;
2022/09/23 15:40:45;;;;;;;;;;;;;;;;;;4936867;29;19926;-86
2022/09/23 15:43:23;;;;;;;;;;;;;;;;;;4936086;28;20396;-88
2022/09/23 15:51:13;;;;;;;;;;;;;;;;;;4904117;29;19916;-89
2022/09/23 15:53:40;;;;;;;;;;;;;;;;;;4945684;29;19949;-88
2022/09/23 15:56:08;;;;;;;;;;;;;;;;;;4935496;29;19914;-88
2022/09/23 15:58:36;;;;;;;;;;;;;;;;;;4932511;29;19922;-89
2022/09/23 16:01:01;;;;;;;;;;;;;;;;;;4938184;28;20441;-88
2022/09/23 16:06:14;;;;;;;;;;;;;;;;;;4933100;29;20123;-88
2022/09/23 16:08:41;;;;;;;;;;;;;;;;;;4916862;29;20047;-89
2022/09/23 16:11:08;;;;;;;;;;;;;;;;;;4933649;29;19915;-89
2022/09/23 16:21:35;;;;;;;;;;;;;;;;;;4931398;29;20041;-88
2022/09/23 16:24:11;;;;;;;;;;;;;;;;;;4914396;29;19954;-88
2022/09/23 16:26:45;;;;;;;;;;;;;;;;;;4919749;29;20334;-88
2022/09/23 16:32:19;;;;;;;;;;;;;;;;;;4874308;29;19921;-87
2022/09/23 22:55:24;;;;;;;;;;;;;;;;;;4910341;29;19927;-86
2022/09/23 22:57:50;;;;;;;;;;;;;;;;;;4905836;29;19923;-86
2022/09/23 23:00:15;;;;;;;;;;;;;;;;;;4904213;29;19915;-86
2022/09/23 23:02:41;;;;;;;;;;;;;;;;;;4910012;29;19975;-85
2022/09/23 23:07:34;;;;;;;;;;;;;;;;;;4922466;29;20384;-87
2022/09/23 23:10:00;;;;;;;;;;;;;;;;;;4926597;29;19939;-87
2022/09/23 23:12:25;;;;;;;;;;;;;;;;;;4929216;29;19922;-88
2022/09/23 23:14:51;;;;;;;;;;;;;;;;;;4930056;29;19922;-87
2022/09/23 23:17:17;;;;;;;;;;;;;;;;;;4927874;28;19953;-87
2022/09/23 23:19:42;;;;;;;;;;;;;;;;;;4927642;29;20319;-87
2022/09/23 23:22:07;;;;;;;;;;;;;;;;;;4931882;29;19923;-88
2022/09/23 23:24:32;;;;;;;;;;;;;;;;;;4927204;29;19914;-87
2022/09/23 23:26:58;;;;;;;;;;;;;;;;;;4928373;29;19919;-86
2022/09/23 23:29:23;;;;;;;;;;;;;;;;;;4925607;29;19924;-87
2022/09/23 23:31:48;;;;;;;;;;;;;;;;;;4924451;29;20428;-87